Bradford, Massachusetts
Current Conditions -  °F | °C
As of 9:54 AM on Thursday 23 Oct 2014 (Local Time) from KLWM Reporting Station
Heavy Rain Heavy Rain  
Wind Chill: 45°   Ceiling: 1700
Heat Index: 49°   Visibility: 2.5mi
Dew Point: 48°   Wind: 10mph
Humidity: 97%   Direction: 360°N
Pressure: 29.73"   Gusts: NA
Location:  42.7512°N, 71.0864°W
Report Text: KLWM 231354Z 36009KT 2 1/2SM +RA BR FEW006 SCT009 OVC017 09/09 A2973 RMK AO2 SLP068 P0043 T00940089
Loading
Personal Weather Stations






























Interactive Weather Map
Tropical Storm Tracking
New forecast layout! Learn more

10-Day Weather Forecast

Advertisements
Track Severe Weather on mobile